Time;durP1;ratioP1;P1;durP2;ratioP2;P2;SDS_P1;SDS_P2;PMS_P1;PMS_P2;Temp;Humidity;BMP_temperature;BMP_pressure;BME280_temperature;BME280_humidity;BME280_pressure;Samples;Min_cycle;Max_cycle;Signal;HPM_P1;HPM_P2
2022/03/31 00:00:30;;;;;;;14.27;9.00;;;;;;;3.35;59.55;98886.16;5089298;28;20074;-79
2022/03/31 00:02:58;;;;;;;15.13;9.90;;;;;;;3.36;59.49;98885.22;5087828;28;20114;-79
2022/03/31 00:05:26;;;;;;;18.67;9.52;;;;;;;3.42;59.64;98889.19;5095438;28;20088;-80
2022/03/31 00:07:54;;;;;;;15.45;9.13;;;;;;;3.44;59.60;98889.94;5093675;28;20094;-78
2022/03/31 00:10:26;;;;;;;16.75;10.55;;;;;;;3.41;59.83;98879.69;5090498;28;20044;-79
2022/03/31 00:12:56;;;;;;;14.20;9.32;;;;;;;3.38;59.66;98879.88;5088082;28;20110;-76
2022/03/31 00:15:24;;;;;;;19.10;10.85;;;;;;;3.34;59.77;98886.25;5090692;28;20041;-76
2022/03/31 00:17:51;;;;;;;12.95;8.05;;;;;;;3.33;60.06;98884.56;5092880;28;20048;-76
2022/03/31 00:23:40;;;;;;;19.08;10.40;;;;;;;3.31;60.04;98874.22;5089833;28;20157;-77
2022/03/31 00:26:08;;;;;;;15.60;8.60;;;;;;;3.32;60.34;98867.25;5087653;28;20114;-80
2022/03/31 00:28:36;;;;;;;16.20;9.85;;;;;;;3.33;60.36;98866.28;5088396;28;20040;-77
2022/03/31 00:31:03;;;;;;;15.88;9.95;;;;;;;3.30;60.01;98869.13;5088560;28;20043;-76
2022/03/31 00:33:30;;;;;;;15.75;9.75;;;;;;;3.24;60.37;98860.75;5088217;28;20098;-80
2022/03/31 00:35:57;;;;;;;18.92;10.45;;;;;;;3.25;60.52;98862.41;5088779;28;20044;-77
2022/03/31 00:38:24;;;;;;;18.95;10.02;;;;;;;3.19;60.63;98865.44;5090096;28;20048;-81
2022/03/31 00:40:52;;;;;;;24.35;12.18;;;;;;;3.15;60.79;98857.88;5089548;28;20044;-78
2022/03/31 00:43:19;;;;;;;15.38;9.05;;;;;;;3.20;60.75;98856.66;5089657;28;20131;-79
2022/03/31 00:45:51;;;;;;;21.75;11.43;;;;;;;3.20;60.68;98851.44;5088553;28;20098;-78
2022/03/31 00:48:19;;;;;;;18.40;11.90;;;;;;;3.18;60.65;98845.47;5087963;28;20332;-78
2022/03/31 00:50:48;;;;;;;18.40;10.02;;;;;;;3.17;60.82;98851.66;5084653;28;20131;-81
2022/03/31 00:53:15;;;;;;;22.20;10.65;;;;;;;3.21;60.94;98855.72;5090757;28;20052;-84
2022/03/31 00:55:45;;;;;;;16.98;10.45;;;;;;;3.23;60.87;98846.03;5090537;28;20105;-80
2022/03/31 00:58:12;;;;;;;16.60;11.15;;;;;;;3.24;61.03;98850.31;5089924;28;20040;-76
2022/03/31 01:00:39;;;;;;;16.88;9.68;;;;;;;3.24;61.01;98847.72;5089810;28;20192;-78
2022/03/31 01:03:08;;;;;;;15.82;10.20;;;;;;;3.26;61.01;98850.22;5087767;28;20060;-78
2022/03/31 01:05:39;;;;;;;21.73;14.32;;;;;;;3.31;60.91;98849.91;5087937;28;20044;-79
2022/03/31 01:08:06;;;;;;;19.75;12.18;;;;;;;3.31;60.78;98839.47;5088202;28;20040;-82
2022/03/31 01:10:33;;;;;;;22.88;12.90;;;;;;;3.26;60.98;98855.44;5088689;28;20052;-78
2022/03/31 01:13:05;;;;;;;23.83;13.35;;;;;;;3.27;61.23;98845.84;5087667;28;20544;-78
2022/03/31 01:15:32;;;;;;;20.88;13.20;;;;;;;3.24;61.12;98852.94;5087212;28;20070;-77
2022/03/31 01:17:59;;;;;;;18.15;10.07;;;;;;;3.23;61.11;98853.03;5089007;28;20052;-81
2022/03/31 01:20:28;;;;;;;19.00;12.07;;;;;;;3.23;61.29;98845.19;5088652;28;20044;-77
2022/03/31 01:22:55;;;;;;;17.77;11.65;;;;;;;3.25;61.19;98848.53;5088004;28;20044;-77
2022/03/31 01:25:24;;;;;;;18.90;12.27;;;;;;;3.24;61.26;98850.31;5070380;28;20117;-77
2022/03/31 01:27:51;;;;;;;22.10;12.27;;;;;;;3.27;61.16;98844.06;5088615;28;20140;-79
2022/03/31 01:30:21;;;;;;;18.52;10.48;;;;;;;3.28;61.33;98845.75;5088358;28;20070;-79
2022/03/31 01:32:49;;;;;;;18.10;10.27;;;;;;;3.28;61.21;98844.88;5086696;28;20421;-79
2022/03/31 01:35:17;;;;;;;19.88;11.55;;;;;;;3.24;60.97;98846.84;5087450;28;20070;-78
2022/03/31 01:37:44;;;;;;;20.38;9.93;;;;;;;3.22;61.18;98838.28;5087035;28;20441;-80
2022/03/31 01:40:12;;;;;;;16.83;10.20;;;;;;;3.24;61.25;98846.84;5088456;28;20155;-78
2022/03/31 01:42:42;;;;;;;14.75;9.10;;;;;;;3.26;61.12;98845.00;5088555;28;20109;-78
2022/03/31 01:45:11;;;;;;;15.55;9.07;;;;;;;3.24;61.31;98852.94;5088626;28;20051;-78
2022/03/31 01:47:39;;;;;;;21.40;12.05;;;;;;;3.27;61.38;98848.44;5088993;28;20477;-80
2022/03/31 01:50:09;;;;;;;20.90;12.52;;;;;;;3.22;61.16;98844.38;5089407;28;20476;-78
2022/03/31 01:52:36;;;;;;;20.27;10.98;;;;;;;3.21;61.04;98849.69;5093933;28;20218;-79
2022/03/31 01:55:04;;;;;;;15.38;8.93;;;;;;;3.23;61.38;98853.84;5104806;28;20028;-80
2022/03/31 01:57:31;;;;;;;13.65;9.07;;;;;;;3.20;61.42;98848.81;5103923;28;20495;-78
2022/03/31 02:00:02;;;;;;;16.13;9.80;;;;;;;3.21;61.48;98845.28;5098661;28;20044;-79
2022/03/31 02:02:30;;;;;;;17.60;9.90;;;;;;;3.20;61.27;98856.66;5086647;28;20056;-79
2022/03/31 02:04:57;;;;;;;16.35;11.50;;;;;;;3.24;61.28;98842.50;5089841;28;20052;-79
2022/03/31 02:07:25;;;;;;;11.75;8.32;;;;;;;3.22;61.37;98852.19;5088943;28;20048;-81
2022/03/31 02:09:52;;;;;;;15.70;8.82;;;;;;;3.23;61.39;98847.81;5037000;28;20044;-81
2022/03/31 02:12:19;;;;;;;17.85;10.82;;;;;;;3.23;61.23;98850.41;5092492;28;20048;-80
2022/03/31 02:14:46;;;;;;;14.43;9.02;;;;;;;3.24;61.45;98849.47;5090531;28;20357;-78
2022/03/31 02:17:16;;;;;;;14.75;9.38;;;;;;;3.25;61.32;98851.97;5091907;28;20048;-78
2022/03/31 02:19:43;;;;;;;15.55;8.10;;;;;;;3.19;61.20;98851.56;5088833;28;20044;-79
2022/03/31 02:22:10;;;;;;;16.20;9.27;;;;;;;3.18;61.30;98855.09;5087643;28;20055;-78
2022/03/31 02:24:38;;;;;;;22.75;10.00;;;;;;;3.15;61.30;98853.53;5087514;28;20052;-78
2022/03/31 02:27:06;;;;;;;15.98;9.20;;;;;;;3.13;61.66;98860.59;5087742;28;20048;-77
2022/03/31 02:29:33;;;;;;;16.48;7.95;;;;;;;3.15;61.38;98858.75;5088465;28;20078;-79
2022/03/31 02:32:00;;;;;;;15.57;8.48;;;;;;;3.15;61.58;98853.53;5085655;28;20050;-78
2022/03/31 02:34:29;;;;;;;13.38;8.75;;;;;;;3.11;61.53;98852.03;5089126;28;20070;-77
2022/03/31 02:36:56;;;;;;;17.58;9.10;;;;;;;3.10;61.60;98854.72;5089027;28;20104;-78
2022/03/31 02:39:23;;;;;;;13.50;8.65;;;;;;;3.07;61.72;98850.56;5090740;28;20135;-79
2022/03/31 02:41:50;;;;;;;14.43;9.10;;;;;;;3.04;61.55;98845.53;5091197;28;20040;-77
2022/03/31 02:44:17;;;;;;;14.13;7.30;;;;;;;3.02;61.83;98850.00;5073990;28;20048;-77
2022/03/31 02:46:46;;;;;;;15.60;8.77;;;;;;;3.04;61.92;98849.00;5090867;28;20106;-78
2022/03/31 02:49:13;;;;;;;12.68;7.10;;;;;;;3.12;61.79;98852.88;5093242;28;20411;-75
2022/03/31 02:51:41;;;;;;;11.80;7.95;;;;;;;3.06;61.82;98846.25;5093917;28;20052;-77
2022/03/31 02:56:53;;;;;;;12.50;8.63;;;;;;;3.00;61.67;98849.28;5096981;28;20144;-77
2022/03/31 02:59:20;;;;;;;10.63;6.68;;;;;;;3.02;61.76;98852.63;5097826;28;20048;-78
2022/03/31 03:01:47;;;;;;;12.43;8.25;;;;;;;2.97;61.88;98854.69;5099230;28;20483;-78
2022/03/31 03:04:14;;;;;;;15.57;9.00;;;;;;;2.95;62.10;98860.00;5095274;28;20100;-79
2022/03/31 03:06:43;;;;;;;13.15;8.80;;;;;;;2.94;61.90;98849.69;5096435;28;20107;-77
2022/03/31 03:09:10;;;;;;;13.13;7.20;;;;;;;2.92;61.94;98854.13;5096330;28;20094;-81
2022/03/31 03:11:37;;;;;;;18.17;8.93;;;;;;;2.91;62.14;98852.47;5095500;28;20050;-77
2022/03/31 03:14:04;;;;;;;12.20;8.85;;;;;;;2.90;62.01;98851.66;5096933;28;20040;-78
2022/03/31 03:16:31;;;;;;;16.40;9.13;;;;;;;2.92;62.08;98859.34;5099882;28;20103;-80
2022/03/31 03:18:59;;;;;;;13.57;8.48;;;;;;;2.90;61.98;98853.41;5095836;28;20054;-77
2022/03/31 03:21:26;;;;;;;16.45;8.23;;;;;;;2.87;61.96;98850.06;5092956;28;20047;-79
2022/03/31 03:23:55;;;;;;;15.30;9.27;;;;;;;2.86;62.38;98855.34;5090926;28;20044;-78
2022/03/31 03:26:26;;;;;;;12.52;7.78;;;;;;;2.85;62.07;98849.31;5071322;28;20048;-79
2022/03/31 03:28:54;;;;;;;14.77;7.25;;;;;;;2.85;62.21;98846.72;5089970;28;20044;-76
2022/03/31 03:31:22;;;;;;;17.05;8.13;;;;;;;2.87;62.20;98855.25;5089898;28;20048;-77
2022/03/31 03:33:49;;;;;;;12.48;7.03;;;;;;;2.89;62.26;98851.75;5069152;28;20159;-78
2022/03/31 03:36:16;;;;;;;20.55;11.35;;;;;;;2.84;62.08;98855.44;5069727;28;20125;-76
2022/03/31 03:38:43;;;;;;;17.40;10.43;;;;;;;2.92;62.12;98856.75;5089200;28;20044;-77
2022/03/31 03:41:12;;;;;;;16.50;9.38;;;;;;;2.85;62.11;98862.34;5087894;28;20048;-76
2022/03/31 03:43:40;;;;;;;13.60;8.40;;;;;;;2.86;62.05;98864.03;5088591;28;20056;-75
2022/03/31 03:46:07;;;;;;;14.75;9.95;;;;;;;2.88;62.27;98866.53;5087832;28;20078;-74
2022/03/31 03:48:34;;;;;;;21.88;10.15;;;;;;;2.92;62.15;98867.16;5087912;28;20149;-75
2022/03/31 03:51:01;;;;;;;10.30;6.13;;;;;;;2.89;62.29;98868.22;5088498;28;20055;-77
2022/03/31 03:53:28;;;;;;;12.18;7.57;;;;;;;2.88;62.30;98856.09;5089070;28;20044;-75
2022/03/31 03:55:55;;;;;;;12.70;8.07;;;;;;;2.87;62.00;98859.66;5090233;28;20040;-76
2022/03/31 03:58:24;;;;;;;10.95;7.63;;;;;;;2.85;62.42;98849.31;5088130;28;20459;-75
2022/03/31 04:00:52;;;;;;;12.55;7.10;;;;;;;2.82;62.31;98851.28;5086731;28;20058;-76
2022/03/31 04:03:19;;;;;;;10.77;6.72;;;;;;;2.81;62.39;98857.41;5085252;28;20491;-75
2022/03/31 04:05:46;;;;;;;10.68;5.45;;;;;;;2.78;62.34;98855.84;5086279;28;20545;-76
2022/03/31 04:08:15;;;;;;;11.10;5.45;;;;;;;2.78;62.51;98860.25;5086708;28;20259;-77
2022/03/31 04:10:42;;;;;;;11.73;7.55;;;;;;;2.80;62.09;98864.41;5087574;28;20046;-76
2022/03/31 04:13:11;;;;;;;12.20;6.93;;;;;;;2.79;62.44;98854.94;5094942;28;20040;-77
2022/03/31 04:16:07;;;;;;;12.82;6.88;;;;;;;2.79;62.49;98870.56;5098561;28;20040;-79
2022/03/31 04:18:55;;;;;;;9.35;5.50;;;;;;;2.76;62.41;98865.53;5027141;28;20465;-76
2022/03/31 04:21:22;;;;;;;5.30;3.88;;;;;;;2.74;62.41;98874.38;5022986;28;20545;-78
2022/03/31 04:23:49;;;;;;;12.18;7.13;;;;;;;2.71;62.32;98875.41;5005115;28;20076;-75
2022/03/31 04:26:16;;;;;;;7.35;5.55;;;;;;;2.74;62.42;98874.38;5004269;28;20528;-74
2022/03/31 04:28:43;;;;;;;10.65;6.30;;;;;;;2.74;62.60;98864.81;5005827;28;20061;-76
2022/03/31 04:31:11;;;;;;;10.35;5.40;;;;;;;2.75;62.41;98866.47;5004952;28;20068;-76
2022/03/31 04:33:38;;;;;;;10.73;6.45;;;;;;;2.77;62.15;98867.19;5008074;28;20056;-77
2022/03/31 04:36:06;;;;;;;9.73;5.70;;;;;;;2.78;62.24;98870.66;5003599;28;20164;-74
2022/03/31 04:38:33;;;;;;;15.15;8.30;;;;;;;2.77;62.44;98872.41;5003056;28;20170;-76
2022/03/31 04:40:59;;;;;;;11.95;5.80;;;;;;;2.77;62.27;98875.03;5004203;28;20060;-75
2022/03/31 04:43:26;;;;;;;16.80;8.52;;;;;;;2.78;62.30;98883.72;5004002;28;20042;-75
2022/03/31 04:45:53;;;;;;;13.48;6.63;;;;;;;2.81;62.18;98884.34;5004374;28;20527;-73
2022/03/31 04:48:22;;;;;;;9.57;6.53;;;;;;;2.78;62.39;98884.53;5004699;28;20603;-75
2022/03/31 04:50:49;;;;;;;12.23;7.25;;;;;;;2.82;62.31;98888.63;5046743;28;20055;-76
2022/03/31 04:53:17;;;;;;;17.38;9.23;;;;;;;2.83;62.27;98890.31;5050879;28;20635;-80
2022/03/31 04:55:44;;;;;;;20.48;9.07;;;;;;;2.86;62.54;98892.72;5050959;28;20131;-79
2022/03/31 04:58:11;;;;;;;11.38;6.90;;;;;;;2.90;62.13;98895.13;5045940;28;20061;-75
2022/03/31 05:00:38;;;;;;;10.60;8.02;;;;;;;2.90;62.06;98897.72;5047890;28;20049;-79
2022/03/31 05:03:05;;;;;;;9.98;5.65;;;;;;;2.94;62.04;98896.63;5067299;28;20416;-77
2022/03/31 05:05:34;;;;;;;14.05;9.30;;;;;;;2.93;62.14;98910.59;5071085;28;20130;-76
2022/03/31 05:08:01;;;;;;;13.48;7.57;;;;;;;2.93;62.06;98907.97;5066743;28;20056;-77
2022/03/31 05:10:28;;;;;;;14.88;6.80;;;;;;;2.95;61.87;98906.09;5065971;28;20131;-77
2022/03/31 05:12:55;;;;;;;11.05;5.78;;;;;;;2.98;62.01;98913.75;5065944;28;20059;-76
2022/03/31 05:15:22;;;;;;;9.48;6.05;;;;;;;3.00;62.23;98904.06;5065902;28;20422;-76
2022/03/31 05:17:50;;;;;;;11.77;8.43;;;;;;;3.00;62.15;98909.28;5066451;28;20072;-79
2022/03/31 05:20:18;;;;;;;12.25;8.35;;;;;;;3.01;62.21;98910.97;5065375;28;20048;-77
2022/03/31 05:22:46;;;;;;;6.18;4.38;;;;;;;3.06;61.98;98922.78;5067115;28;20131;-76
2022/03/31 05:25:13;;;;;;;13.88;6.13;;;;;;;3.02;61.89;98925.66;5065299;28;20058;-75
2022/03/31 05:27:44;;;;;;;13.88;7.53;;;;;;;2.99;62.19;98934.53;5065849;28;20059;-76
2022/03/31 05:30:12;;;;;;;14.35;7.43;;;;;;;2.98;62.34;98929.41;5065305;28;20063;-74
2022/03/31 05:32:39;;;;;;;11.38;7.10;;;;;;;3.00;62.27;98930.13;5064501;28;20045;-76
2022/03/31 05:35:08;;;;;;;14.30;8.57;;;;;;;3.04;62.17;98923.78;5065197;28;20052;-76
2022/03/31 05:37:35;;;;;;;10.70;6.07;;;;;;;3.06;61.88;98929.75;5064295;28;20048;-75
2022/03/31 05:40:05;;;;;;;13.57;8.10;;;;;;;3.11;61.93;98940.72;5073334;28;20039;-74
2022/03/31 05:42:32;;;;;;;10.65;5.97;;;;;;;3.08;61.58;98927.91;5071813;28;20052;-78
2022/03/31 05:44:59;;;;;;;9.48;5.47;;;;;;;3.10;62.14;98922.56;5072982;28;20052;-79
2022/03/31 05:47:27;;;;;;;10.02;6.65;;;;;;;3.07;61.65;98926.22;5066184;28;20052;-78
2022/03/31 05:49:54;;;;;;;6.85;4.60;;;;;;;3.12;61.80;98921.53;5082095;28;20130;-81
2022/03/31 05:52:22;;;;;;;9.07;5.45;;;;;;;3.18;61.80;98921.16;5080160;28;20044;-81
2022/03/31 05:54:50;;;;;;;22.00;8.55;;;;;;;3.20;61.65;98924.47;5091627;28;20126;-80
2022/03/31 05:57:19;;;;;;;8.55;5.07;;;;;;;3.20;61.47;98929.72;5095838;28;20088;-81
2022/03/31 05:59:46;;;;;;;8.57;5.05;;;;;;;3.29;61.41;98927.47;5096194;28;20060;-81
2022/03/31 06:02:14;;;;;;;8.73;6.30;;;;;;;3.31;61.60;98943.84;5093928;28;20071;-79
2022/03/31 06:04:41;;;;;;;16.13;7.45;;;;;;;3.32;61.39;98938.53;5086627;28;20036;-81
2022/03/31 06:07:08;;;;;;;10.13;5.13;;;;;;;3.36;61.24;98940.00;5087168;28;20055;-84
2022/03/31 06:09:38;;;;;;;11.07;5.90;;;;;;;3.42;61.11;98947.47;5077412;28;20040;-78
2022/03/31 06:12:05;;;;;;;11.93;5.20;;;;;;;3.45;61.10;98933.38;5069653;28;20044;-81
2022/03/31 06:14:34;;;;;;;12.68;6.50;;;;;;;3.44;60.99;98942.16;5076846;28;20467;-80
2022/03/31 06:17:01;;;;;;;8.30;4.78;;;;;;;3.42;61.23;98937.03;5070540;28;20439;-79
2022/03/31 06:19:28;;;;;;;17.40;6.82;;;;;;;3.48;61.24;98935.78;5075115;28;20116;-78
2022/03/31 06:21:55;;;;;;;9.38;5.85;;;;;;;3.60;60.97;98936.75;5067492;28;20121;-76
2022/03/31 06:24:22;;;;;;;10.23;5.75;;;;;;;3.61;60.79;98943.66;5064762;28;20131;-76
2022/03/31 06:26:49;;;;;;;10.00;5.43;;;;;;;3.63;60.76;98944.41;5062863;28;20258;-75
2022/03/31 06:29:16;;;;;;;13.70;5.57;;;;;;;3.60;60.70;98942.84;5069264;28;20100;-80
2022/03/31 06:31:45;;;;;;;7.75;5.97;;;;;;;3.69;60.65;98951.00;5066331;28;20464;-78
2022/03/31 06:34:12;;;;;;;15.52;6.40;;;;;;;3.78;60.78;98956.47;5063443;28;20325;-75
2022/03/31 06:36:39;;;;;;;10.15;5.90;;;;;;;3.83;60.36;98945.69;5064589;28;20491;-76
2022/03/31 06:39:06;;;;;;;11.13;6.35;;;;;;;3.82;60.28;98947.50;5063845;28;20139;-74
2022/03/31 06:41:33;;;;;;;9.43;5.65;;;;;;;3.80;60.60;98944.16;5063991;28;20049;-77
2022/03/31 06:44:00;;;;;;;12.38;7.32;;;;;;;3.88;60.28;98948.03;5066433;28;20312;-74
2022/03/31 06:46:27;;;;;;;11.63;6.75;;;;;;;3.93;60.30;98946.78;5066285;28;20148;-74
2022/03/31 06:48:55;;;;;;;17.05;6.13;;;;;;;3.92;60.31;98955.53;5065751;28;20056;-78
2022/03/31 06:51:22;;;;;;;13.23;8.07;;;;;;;3.88;60.37;98969.75;5069771;28;20079;-78
2022/03/31 06:53:49;;;;;;;13.30;7.25;;;;;;;3.94;60.38;98971.13;5066504;28;20323;-77
2022/03/31 06:56:18;;;;;;;12.98;6.90;;;;;;;4.04;60.20;98968.75;5068617;28;20037;-76
2022/03/31 06:58:46;;;;;;;11.98;6.18;;;;;;;4.10;60.04;98961.31;5068744;28;20048;-80
2022/03/31 07:01:13;;;;;;;9.77;6.43;;;;;;;4.09;60.19;98964.03;5068633;28;20080;-79
2022/03/31 07:03:40;;;;;;;10.95;5.45;;;;;;;4.13;59.77;98970.75;5062856;28;20040;-78
2022/03/31 07:06:09;;;;;;;13.82;8.20;;;;;;;4.17;59.90;98967.81;5076413;28;20036;-77
2022/03/31 07:08:36;;;;;;;15.80;7.97;;;;;;;4.28;59.63;98974.13;5077516;28;20112;-77
2022/03/31 07:11:04;;;;;;;10.55;5.82;;;;;;;4.35;59.58;98978.00;5078769;28;20084;-77
2022/03/31 07:13:31;;;;;;;9.15;5.18;;;;;;;4.19;59.47;98975.56;5065327;28;20044;-76
2022/03/31 07:16:00;;;;;;;8.82;5.28;;;;;;;4.10;60.00;98966.56;5065841;28;20084;-82
2022/03/31 07:18:27;;;;;;;16.77;7.43;;;;;;;4.08;59.93;98968.44;5067899;28;20136;-81
2022/03/31 07:20:57;;;;;;;11.05;6.75;;;;;;;4.19;59.94;98965.94;5065762;28;20163;-81
2022/03/31 07:23:26;;;;;;;12.48;7.53;;;;;;;4.22;59.76;98976.19;5065483;28;20114;-81
2022/03/31 07:25:54;;;;;;;12.35;7.13;;;;;;;4.23;59.77;98971.78;5066618;28;20356;-82
2022/03/31 07:28:24;;;;;;;7.70;6.57;;;;;;;4.22;59.78;98970.97;5066362;28;20192;-81
2022/03/31 07:30:52;;;;;;;9.70;5.75;;;;;;;4.18;59.60;98972.13;5068390;28;20029;-82
2022/03/31 07:33:21;;;;;;;13.00;7.15;;;;;;;4.12;59.73;98974.28;5066071;28;20159;-78
2022/03/31 07:35:49;;;;;;;9.40;5.50;;;;;;;4.18;59.87;98968.69;5066532;28;20080;-79
2022/03/31 07:38:17;;;;;;;7.95;5.05;;;;;;;4.23;59.73;98977.03;5068130;28;20072;-82
2022/03/31 07:40:46;;;;;;;9.40;6.60;;;;;;;4.18;59.70;98974.72;5063585;28;20107;-78
2022/03/31 07:43:14;;;;;;;12.48;5.90;;;;;;;4.21;59.65;98973.69;5054688;28;20044;-76
2022/03/31 07:45:41;;;;;;;12.52;7.43;;;;;;;4.29;59.52;98991.50;5053388;28;20068;-74
2022/03/31 07:48:13;;;;;;;14.13;7.53;;;;;;;4.32;59.50;98981.66;5052530;28;20049;-77
2022/03/31 07:50:41;;;;;;;11.02;7.80;;;;;;;4.47;59.40;98995.47;5054198;28;20124;-76
2022/03/31 07:53:08;;;;;;;15.27;8.60;;;;;;;4.51;59.11;98981.25;5052857;28;20515;-76
2022/03/31 07:55:35;;;;;;;11.75;7.90;;;;;;;4.50;59.31;98994.41;5034033;28;20037;-75
2022/03/31 07:58:03;;;;;;;16.35;7.80;;;;;;;4.59;59.18;98999.88;5053253;28;20051;-75
2022/03/31 08:00:31;;;;;;;12.57;5.72;;;;;;;4.73;59.02;98982.38;5052549;28;20348;-72
2022/03/31 08:02:59;;;;;;;13.10;6.43;;;;;;;4.69;58.94;98979.16;5070474;28;20052;-75
2022/03/31 08:05:29;;;;;;;13.35;9.43;;;;;;;4.87;58.84;98966.56;5082608;28;20048;-72
2022/03/31 08:07:57;;;;;;;12.90;8.93;;;;;;;5.03;58.65;98971.59;5082266;28;20062;-75
2022/03/31 08:10:25;;;;;;;10.32;6.15;;;;;;;5.29;58.38;98982.00;5081546;28;20036;-75
2022/03/31 08:12:52;;;;;;;12.75;7.22;;;;;;;5.42;57.90;98992.41;5084438;28;20040;-74
2022/03/31 08:15:22;;;;;;;11.52;5.63;;;;;;;5.37;58.07;98998.00;5081698;28;20869;-72
2022/03/31 08:17:50;;;;;;;12.73;7.45;;;;;;;5.40;58.07;99007.41;5081547;28;20044;-72
2022/03/31 08:20:18;;;;;;;13.70;6.22;;;;;;;5.44;57.96;98999.25;5080731;28;20085;-73
2022/03/31 08:22:46;;;;;;;11.10;5.80;;;;;;;5.53;57.99;98989.88;5082630;28;20094;-74
2022/03/31 08:25:14;;;;;;;13.00;7.28;;;;;;;5.62;57.79;98988.38;5063363;28;20216;-76
2022/03/31 08:27:42;;;;;;;13.90;6.47;;;;;;;5.67;57.58;98997.59;5081376;28;20150;-72
2022/03/31 08:30:13;;;;;;;15.07;6.80;;;;;;;5.54;57.68;98992.38;5081890;28;20491;-71
2022/03/31 08:32:43;;;;;;;7.93;4.35;;;;;;;5.35;58.02;98995.47;5081054;28;20039;-73
2022/03/31 08:35:12;;;;;;;11.50;7.60;;;;;;;5.20;58.02;98998.34;5081763;28;20044;-76
2022/03/31 08:37:40;;;;;;;13.48;8.48;;;;;;;5.22;58.07;98994.69;5081564;28;20046;-74
2022/03/31 08:40:11;;;;;;;15.30;6.88;;;;;;;5.29;58.07;98992.47;5080823;28;20125;-75
2022/03/31 08:42:38;;;;;;;12.15;6.97;;;;;;;5.34;57.61;98991.19;5077142;28;20076;-79
2022/03/31 08:45:08;;;;;;;9.55;7.18;;;;;;;5.51;57.53;98974.28;5081579;28;20048;-73
2022/03/31 08:47:35;;;;;;;12.63;6.15;;;;;;;5.68;57.23;98972.22;5082432;28;20714;-76
2022/03/31 08:50:04;;;;;;;10.65;5.85;;;;;;;5.82;56.96;98979.09;5083039;28;20287;-79
2022/03/31 08:52:31;;;;;;;12.88;6.80;;;;;;;5.81;56.94;98977.41;5084129;28;20079;-75
2022/03/31 08:54:58;;;;;;;9.10;6.05;;;;;;;6.01;56.90;98978.56;5082548;28;20411;-76
2022/03/31 08:57:25;;;;;;;10.02;6.50;;;;;;;6.05;56.54;98977.38;5083109;28;20510;-77
2022/03/31 08:59:52;;;;;;;14.63;7.63;;;;;;;6.17;56.71;98963.38;5080868;28;20515;-74
2022/03/31 09:02:26;;;;;;;8.68;5.20;;;;;;;6.43;56.46;98966.66;5080725;28;20408;-74
2022/03/31 09:05:07;;;;;;;6.57;4.35;;;;;;;6.59;55.95;98971.59;5082489;28;20503;-77
2022/03/31 09:07:34;;;;;;;11.68;6.07;;;;;;;6.69;55.37;98975.16;5081377;28;20554;-76
2022/03/31 09:10:01;;;;;;;13.60;7.22;;;;;;;6.65;55.55;98965.84;5082608;28;20048;-74
2022/03/31 09:12:38;;;;;;;12.52;7.50;;;;;;;6.63;55.71;98980.06;5083759;28;20109;-75
2022/03/31 09:15:12;;;;;;;7.47;5.72;;;;;;;6.62;55.68;98962.63;5081982;28;20044;-76
2022/03/31 09:17:40;;;;;;;9.75;5.80;;;;;;;6.73;55.55;98980.16;5082687;28;20047;-77
2022/03/31 09:20:09;;;;;;;9.88;6.40;;;;;;;6.82;55.28;98968.97;5081469;28;20048;-77
2022/03/31 09:22:48;;;;;;;11.38;7.40;;;;;;;6.92;55.15;98972.56;5080773;28;20132;-74
2022/03/31 09:25:24;;;;;;;7.53;5.70;;;;;;;7.02;54.77;98964.78;5082938;28;20439;-76
2022/03/31 09:27:50;;;;;;;;;;;;;;;7.37;54.49;98975.13;5080531;28;20044;-75
2022/03/31 09:30:18;;;;;;;12.27;5.78;;;;;;;7.33;54.26;98978.97;5082493;28;19926;-78
2022/03/31 09:32:49;;;;;;;8.77;6.13;;;;;;;7.34;54.38;98980.63;5080127;28;20706;-74
2022/03/31 09:35:22;;;;;;;10.25;5.60;;;;;;;7.36;54.55;98986.59;5076789;28;20123;-75
2022/03/31 09:37:49;;;;;;;10.25;6.32;;;;;;;7.54;54.37;98986.06;5078250;28;20098;-77
2022/03/31 09:40:19;;;;;;;14.30;6.20;;;;;;;7.78;54.00;98981.47;5080782;28;20055;-76
2022/03/31 09:42:56;;;;;;;15.13;7.55;;;;;;;7.79;53.84;98975.25;5080289;28;20790;-76
2022/03/31 09:45:24;;;;;;;7.72;4.85;;;;;;;8.01;53.68;98976.13;5080827;28;20051;-78
2022/03/31 09:47:52;;;;;;;9.73;6.90;;;;;;;8.15;53.28;98986.34;5074568;28;20117;-75
2022/03/31 09:50:21;;;;;;;11.40;5.25;;;;;;;8.18;52.90;98975.56;5081937;28;20490;-78
2022/03/31 09:52:50;;;;;;;11.35;4.88;;;;;;;8.21;52.73;98980.59;5082590;28;20059;-74
2022/03/31 09:55:19;;;;;;;9.40;5.45;;;;;;;8.27;52.63;98987.13;5080240;28;20062;-76
2022/03/31 09:57:49;;;;;;;9.43;6.28;;;;;;;8.25;52.20;98978.53;5080705;28;20113;-74
2022/03/31 10:00:20;;;;;;;7.97;5.50;;;;;;;8.10;51.91;98977.16;5080466;28;20044;-77
2022/03/31 10:02:48;;;;;;;7.25;4.85;;;;;;;8.03;51.93;98972.41;5060874;28;20044;-79
2022/03/31 10:05:18;;;;;;;8.65;5.55;;;;;;;8.11;51.56;98976.22;5060833;28;20088;-75
2022/03/31 10:07:50;;;;;;;10.35;5.97;;;;;;;8.23;51.55;98973.41;5061490;28;20052;-77
2022/03/31 10:10:17;;;;;;;7.07;4.78;;;;;;;8.33;51.19;98965.56;5059118;28;20189;-78
2022/03/31 10:12:50;;;;;;;13.65;6.82;;;;;;;8.38;51.31;98960.75;5062042;28;20140;-78
2022/03/31 10:15:24;;;;;;;10.45;5.40;;;;;;;8.40;51.09;98973.78;5024569;28;20749;-77
2022/03/31 10:17:51;;;;;;;10.45;6.00;;;;;;;8.46;50.42;98978.53;5055275;28;20499;-77
2022/03/31 10:20:21;;;;;;;8.07;6.07;;;;;;;8.55;50.09;98977.78;5060962;28;20040;-78
2022/03/31 10:25:42;;;;;;;8.02;4.65;;;;;;;8.65;49.71;98984.91;5061523;28;20610;-77
2022/03/31 10:28:12;;;;;;;10.18;5.03;;;;;;;8.47;49.84;98982.03;5060621;28;20040;-76
2022/03/31 10:30:40;;;;;;;11.23;6.50;;;;;;;8.39;49.78;98982.63;5061295;28;20460;-78
2022/03/31 10:33:09;;;;;;;10.30;5.95;;;;;;;8.49;49.34;98966.94;5059164;28;20457;-79
2022/03/31 10:35:39;;;;;;;10.45;5.55;;;;;;;8.58;49.52;98953.81;5060214;28;20041;-80
2022/03/31 10:38:17;;;;;;;8.38;5.57;;;;;;;8.67;49.19;98964.56;5060241;28;20040;-79
2022/03/31 10:40:46;;;;;;;10.07;6.10;;;;;;;8.85;48.34;98973.50;5060963;28;20051;-75
2022/03/31 10:43:22;;;;;;;6.38;4.38;;;;;;;8.75;48.76;98965.56;5051292;28;20044;-78
2022/03/31 10:45:49;;;;;;;10.82;6.65;;;;;;;8.71;48.45;98966.78;5059671;28;20044;-82
2022/03/31 10:48:18;;;;;;;7.25;4.43;;;;;;;8.77;48.75;98970.72;5061872;28;20041;-78
2022/03/31 10:50:48;;;;;;;8.68;6.20;;;;;;;8.91;48.03;98961.59;5063242;28;20103;-79
2022/03/31 10:53:28;;;;;;;13.10;5.25;;;;;;;8.85;47.98;98962.97;5061812;28;20402;-82
2022/03/31 10:55:55;;;;;;;9.02;5.88;;;;;;;8.84;47.99;98969.22;5060157;28;20070;-79
2022/03/31 10:58:28;;;;;;;9.20;5.53;;;;;;;8.87;47.95;98954.94;5062926;28;20598;-79
2022/03/31 11:00:55;;;;;;;9.60;4.88;;;;;;;8.96;47.97;98959.41;5056291;28;20048;-80
2022/03/31 11:03:24;;;;;;;8.23;5.07;;;;;;;9.05;47.97;98947.25;5078550;28;20139;-79
2022/03/31 11:05:56;;;;;;;8.45;5.40;;;;;;;9.16;47.70;98953.25;5076366;28;20051;-78
2022/03/31 11:08:27;;;;;;;8.93;5.40;;;;;;;9.28;47.41;98951.34;5079494;28;20088;-79
2022/03/31 11:10:55;;;;;;;7.97;5.05;;;;;;;9.38;47.20;98953.97;5079381;28;20108;-78
2022/03/31 11:13:32;;;;;;;11.02;5.63;;;;;;;9.40;46.85;98961.75;5081750;28;20369;-78
2022/03/31 11:16:06;;;;;;;10.60;5.32;;;;;;;9.29;47.25;98950.38;5070004;28;20036;-79
2022/03/31 11:18:33;;;;;;;8.73;4.80;;;;;;;9.31;46.84;98948.44;5077802;28;20032;-78
2022/03/31 11:21:01;;;;;;;9.82;5.40;;;;;;;9.35;46.77;98949.00;5086971;28;20087;-81
2022/03/31 11:23:32;;;;;;;7.38;4.63;;;;;;;9.64;46.58;98946.41;5086776;28;20051;-77
2022/03/31 11:26:00;;;;;;;10.23;5.68;;;;;;;9.75;45.74;98948.91;5087103;28;20250;-80
2022/03/31 11:28:30;;;;;;;9.90;5.50;;;;;;;9.82;45.84;98943.09;5083919;28;20691;-77
2022/03/31 11:30:59;;;;;;;7.35;4.75;;;;;;;9.89;45.60;98938.94;5084188;28;20684;-78
2022/03/31 11:33:34;;;;;;;7.88;4.70;;;;;;;10.16;45.51;98942.66;5083971;28;20043;-78
2022/03/31 11:36:01;;;;;;;8.80;5.47;;;;;;;10.11;45.45;98949.16;5082886;28;20094;-78
2022/03/31 11:38:35;;;;;;;11.93;6.10;;;;;;;10.10;45.77;98946.66;5083619;28;20284;-78
2022/03/31 11:41:02;;;;;;;11.20;5.25;;;;;;;10.04;45.21;98948.06;5084833;28;20063;-76
2022/03/31 11:43:32;;;;;;;7.68;5.20;;;;;;;9.93;45.60;98938.50;5087101;28;20124;-78
2022/03/31 11:45:59;;;;;;;8.02;4.90;;;;;;;10.17;45.20;98946.94;5088974;28;20119;-78
2022/03/31 11:48:34;;;;;;;10.35;7.05;;;;;;;10.07;44.83;98933.78;5087257;28;20143;-80